»·PEaware :: ASA744 KSFO-KSLC

ASA744 :: KSFO-KSLC

FLIGHT INFORMATION

Flight Status: Arrived
Operator:
Alaska Airlines
More flights by this operator :: More flights under this callsign
Pilot: Robert N. (17753)
Aircraft: BOEING 737-900
(B739)
More flights by this aircraft type
Origin: KSFO San Francisco Intl
United States
Destination: KSLC Salt Lake City Intl
United States
More flights between these airports :: More routes between these airports
Route: +TRUKN2 MOGEE Q124 BVL WAATS5
File this flight plan on PilotEdge
Remarks: PBN / A1B1C1D1S1S2 DOF / 180108 REG / N922SB EET / KZLC0032 OPR / ASA PER / D RMK / TCAS SIMBRIEF
Altitude:
(Current/Filed)
37,000ft
Speed:
(Current/Filed)
433kts
Departed: 07-Jan-18 06:56 PM
Arrived: 07-Jan-18 08:14 PM
Distance/Time
Traveled:
519nm/1:18
Distance/Time
To Go:
Arrived

Flight Plot

Page will automatically refresh every two minutes.

Flight plan parsing failed; only flown route is shown


Map Options




Map Legend


Flown Route
Filed Route
Departure Airport
Arrival Airport
Navaid (VOR, NDB)
Fix

Horizontal Profiles

Position Reports

Time Latitude Longitude Heading Altitude Ground
Speed
07-Jan-18 18:37 37.613419 -122.387158 297 20ft 0kts
07-Jan-18 18:38 37.613419 -122.387158 297 21ft 0kts
07-Jan-18 18:39 37.613419 -122.387158 297 21ft 0kts
07-Jan-18 18:40 37.613419 -122.387158 297 21ft 0kts
07-Jan-18 18:41 37.613419 -122.387158 297 21ft 0kts
07-Jan-18 18:42 37.613419 -122.387158 297 21ft 0kts
07-Jan-18 18:43 37.613419 -122.387158 297 21ft 0kts
07-Jan-18 18:44 37.613419 -122.387158 297 21ft 0kts
07-Jan-18 18:45 37.613419 -122.387158 297 21ft 0kts
07-Jan-18 18:46 37.613419 -122.387158 297 21ft 0kts
07-Jan-18 18:47 37.613419 -122.387158 297 21ft 0kts
07-Jan-18 18:48 37.613419 -122.387158 297 21ft 0kts
07-Jan-18 18:49 37.613419 -122.387158 297 21ft 0kts
07-Jan-18 18:50 37.613419 -122.387158 297 21ft 0kts
07-Jan-18 18:51 37.613419 -122.387158 297 21ft 0kts
07-Jan-18 18:52 37.613383 -122.387072 292 21ft 2kts
07-Jan-18 18:53 37.613500 -122.386373 214 21ft 2kts
07-Jan-18 18:54 37.613681 -122.386255 202 21ft 0kts
07-Jan-18 18:55 37.613680 -122.386256 202 21ft 0kts
07-Jan-18 18:56 37.613678 -122.386257 202 21ft 0kts
07-Jan-18 18:57 37.612084 -122.387098 180 21ft 2kts
07-Jan-18 18:58 37.611722 -122.386959 136 21ft 4kts
07-Jan-18 18:59 37.611024 -122.385426 117 21ft 6kts
07-Jan-18 19:00 37.609091 -122.384055 124 21ft 5kts
07-Jan-18 19:01 37.608951 -122.383750 119 21ft 2kts
07-Jan-18 19:02 37.613755 -122.379090 27 21ft 90kts
07-Jan-18 19:03 37.643600 -122.351104 54 1186ft 159kts
07-Jan-18 19:04 37.677129 -122.290939 55 3242ft 248kts
07-Jan-18 19:05 37.721187 -122.213167 44 6748ft 290kts
07-Jan-18 19:06 37.787387 -122.151374 34 10438ft 308kts
07-Jan-18 19:07 37.864591 -122.081534 36 12329ft 381kts
07-Jan-18 19:08 37.940790 -121.979741 50 14955ft 412kts
07-Jan-18 19:09 38.016559 -121.866388 50 17746ft 426kts
07-Jan-18 19:10 38.095763 -121.748386 50 20030ft 447kts
07-Jan-18 19:11 38.178340 -121.626329 50 22042ft 464kts
07-Jan-18 19:12 38.263608 -121.498798 50 23767ft 479kts
07-Jan-18 19:13 38.350605 -121.367448 52 25262ft 491kts
07-Jan-18 19:14 38.435901 -121.229060 53 26595ft 502kts
07-Jan-18 19:15 38.523077 -121.086985 52 27739ft 512kts
07-Jan-18 19:16 38.611787 -120.942982 52 28760ft 521kts
07-Jan-18 19:17 38.701200 -120.797122 52 29982ft 521kts
07-Jan-18 19:18 38.790912 -120.649888 52 30962ft 525kts
07-Jan-18 19:19 38.880822 -120.501591 52 31813ft 530kts
07-Jan-18 19:20 38.971676 -120.351023 51 32707ft 532kts
07-Jan-18 19:21 39.062487 -120.199812 51 33197ft 537kts
07-Jan-18 19:22 39.153483 -120.047574 51 33205ft 537kts
07-Jan-18 19:23 39.244952 -119.893809 50 33205ft 542kts
07-Jan-18 19:24 39.336372 -119.739383 51 33198ft 542kts
07-Jan-18 19:25 39.427737 -119.584298 51 33187ft 541kts
07-Jan-18 19:26 39.518677 -119.429179 51 33180ft 540kts
07-Jan-18 19:27 39.609002 -119.274357 51 33178ft 538kts
07-Jan-18 19:28 39.699411 -119.118802 50 33177ft 537kts
07-Jan-18 19:29 39.789063 -118.963829 51 33176ft 536kts
07-Jan-18 19:30 39.877844 -118.808025 54 33171ft 534kts
07-Jan-18 19:31 39.949359 -118.638008 61 33170ft 534kts
07-Jan-18 19:32 40.018500 -118.466937 60 33170ft 532kts
07-Jan-18 19:33 40.087983 -118.296475 60 33171ft 532kts
07-Jan-18 19:34 40.156899 -118.124949 61 33173ft 533kts
07-Jan-18 19:35 40.217006 -117.948323 72 33178ft 529kts
07-Jan-18 19:36 40.258837 -117.765201 72 33180ft 523kts
07-Jan-18 19:37 40.300569 -117.582866 72 33194ft 523kts
07-Jan-18 19:38 40.343108 -117.399645 72 33201ft 524kts
07-Jan-18 19:39 40.384883 -117.216823 72 33209ft 524kts
07-Jan-18 19:40 40.426239 -117.034005 72 33215ft 525kts
07-Jan-18 19:41 40.467602 -116.849581 72 33219ft 525kts
07-Jan-18 19:42 40.508737 -116.665940 72 33220ft 525kts
07-Jan-18 19:43 40.549287 -116.481109 72 33222ft 525kts
07-Jan-18 19:44 40.576055 -116.292534 84 33227ft 528kts
07-Jan-18 19:45 40.589972 -116.098675 84 33232ft 539kts
07-Jan-18 19:46 40.604349 -115.903102 83 33236ft 528kts
07-Jan-18 19:47 40.618714 -115.711301 84 33241ft 525kts
07-Jan-18 19:48 40.632449 -115.520164 83 33242ft 525kts
07-Jan-18 19:49 40.645821 -115.328788 83 33245ft 526kts
07-Jan-18 19:50 40.658912 -115.136630 83 33251ft 526kts
07-Jan-18 19:51 40.671659 -114.944788 83 33260ft 526kts
07-Jan-18 19:52 40.684380 -114.752745 83 33275ft 527kts
07-Jan-18 19:53 40.696336 -114.559722 83 33287ft 528kts
07-Jan-18 19:54 40.705136 -114.366910 86 33294ft 529kts
07-Jan-18 19:55 40.711794 -114.172112 85 33298ft 530kts
07-Jan-18 19:56 40.718944 -113.978591 86 33300ft 529kts
07-Jan-18 19:57 40.724988 -113.789355 86 30860ft 513kts
07-Jan-18 19:58 40.726137 -113.605987 89 28285ft 486kts
07-Jan-18 19:59 40.725262 -113.432006 88 25618ft 469kts
07-Jan-18 20:00 40.724763 -113.262361 87 23007ft 453kts
07-Jan-18 20:01 40.724406 -113.099611 88 20607ft 435kts
07-Jan-18 20:02 40.723272 -112.943085 88 18272ft 419kts
07-Jan-18 20:03 40.722233 -112.793423 88 17062ft 389kts
07-Jan-18 20:04 40.720914 -112.652674 88 14975ft 386kts
07-Jan-18 20:05 40.722435 -112.510809 79 13977ft 386kts
07-Jan-18 20:06 40.745526 -112.373584 75 12989ft 378kts
07-Jan-18 20:07 40.765418 -112.238928 84 11976ft 372kts
07-Jan-18 20:08 40.738316 -112.113346 137 11569ft 366kts
07-Jan-18 20:09 40.647212 -112.078571 180 11193ft 322kts
07-Jan-18 20:10 40.562746 -112.074862 180 9861ft 287kts
07-Jan-18 20:11 40.485023 -112.074130 180 9001ft 262kts
07-Jan-18 20:12 40.441759 -112.035212 84 9017ft 212kts
07-Jan-18 20:13 40.461685 -111.963521 33 8990ft 222kts
07-Jan-18 20:14 40.511364 -111.948454 0 9002ft 222kts
07-Jan-18 20:15 40.583314 -111.947175 358 8503ft 215kts
07-Jan-18 20:16 40.636138 -111.954895 348 7596ft 172kts
07-Jan-18 20:17 40.675224 -111.961459 354 6772ft 169kts
07-Jan-18 20:18 40.731144 -111.968001 354 5085ft 162kts
07-Jan-18 20:19 40.768027 -111.972277 354 4386ft 158kts
07-Jan-18 20:20 40.796827 -111.976024 287 4235ft 15kts
07-Jan-18 20:21 40.796731 -111.977109 260 4235ft 0kts
07-Jan-18 20:22 40.795711 -111.976949 141 4235ft 8kts
07-Jan-18 20:23 40.795359 -111.976602 150 4235ft 3kts
07-Jan-18 20:24 40.795129 -111.976221 66 4235ft 0kts
07-Jan-18 20:25 40.791915 -111.976889 224 4235ft 16kts
07-Jan-18 20:26 40.788902 -111.976889 173 4235ft 5kts
07-Jan-18 20:27 40.788321 -111.976808 173 4235ft 8kts
07-Jan-18 20:28 40.785165 -111.976483 198 4235ft 5kts
07-Jan-18 20:29 40.784737 -111.977372 342 4235ft 0kts
07-Jan-18 20:30 40.784737 -111.977372 342 4235ft 0kts
07-Jan-18 20:31 40.784737 -111.977372 342 4235ft 0kts
07-Jan-18 20:32 40.784737 -111.977372 342 4235ft 0kts
07-Jan-18 20:33 40.784737 -111.977372 342 4235ft 0kts
07-Jan-18 20:34 40.784737 -111.977372 342 4235ft 0kts

Navigation Log

Ident Type
Flight plan parsing failed, navigation log unavailable